This is the latest recevied weather packets stored in our database for station/object KB0OLA. If no packets are shown the sender has not sent any weather packets the latest 10 day(s).
| Time | Temp. | Humidity | Pressure | Rain* | Wind** | Luminosity | Snow |
|---|---|---|---|---|---|---|---|
| 1777953917 | 16.11° C | 40% | 1007.5 hPa | 0 mm | - | - | - |
| 1777952717 | 16.11° C | 40% | 1007.2 hPa | 0 mm | - | - | - |
| 1777949717 | 17.22° C | 36% | 1006.2 hPa | 0 mm | - | - | - |
| 1777945516 | 20° C | 29% | 1005.9 hPa | 0 mm | - | - | - |
| 1777944916 | 20° C | 28% | 1005.9 hPa | 0 mm | - | - | - |
| 1777944318 | 20.56° C | 28% | 1005.9 hPa | 0 mm | - | - | - |
| 1777943718 | 20.56° C | 27% | 1006 hPa | 0 mm | - | - | - |
| 1777943118 | 21.11° C | 27% | 1006.1 hPa | 0 mm | - | - | - |
| 1777938918 | 22.22° C | 27% | 1006.5 hPa | 0 mm | - | - | - |
| 1777932918 | 23.89° C | 22% | 1006.4 hPa | 0 mm | - | - | - |
| 1777930517 | 23.33° C | 22% | 1007 hPa | 0 mm | - | - | - |
| 1777926917 | 23.33° C | 25% | 1007.7 hPa | 0 mm | - | - | - |
| 1777925117 | 23.33° C | 27% | 1007.9 hPa | 0 mm | - | - | - |
| 1777916117 | 21.11° C | 30% | 1009.6 hPa | 0 mm | - | - | - |
| 1777915517 | 21.11° C | 31% | 1009.7 hPa | 0 mm | - | - | - |
| 1777905318 | 13.89° C | 45% | 1010.3 hPa | 0 mm | - | - | - |
| 1777901718 | 8.89° C | 60% | 1010.3 hPa | 0 mm | - | - | - |
| 1777901118 | 8.33° C | 57% | 1010.3 hPa | 0 mm | - | - | - |
| 1777894518 | 9.44° C | 46% | 1010.1 hPa | 0 mm | - | - | - |
| 1777886737 | 11.11° C | 41% | 1009.9 hPa | 0 mm | - | - | - |
| 1777878917 | 10° C | 43% | 1009.4 hPa | 0 mm | - | - | - |
| 1777877717 | 10.56° C | 41% | 1009.3 hPa | 0 mm | - | - | - |
| 1777875317 | 11.11° C | 38% | 1009.3 hPa | 0 mm | - | - | - |
| 1777872918 | 12.78° C | 34% | 1009.2 hPa | 0 mm | - | - | - |
| 1777871117 | 13.33° C | 31% | 1009.5 hPa | 0 mm | - | - | - |
* Rain latest hour (hover to see other rain measurements)
** Current wind speed in m/s (hover to see current wind gust speed)